createdAt,value
2019-04-23T00:00:30.544Z,984.07
2019-04-23T00:01:46.109Z,984.07
2019-04-23T00:02:35.383Z,984.14
2019-04-23T00:03:41.600Z,984.14
2019-04-23T00:04:36.770Z,984.17
2019-04-23T00:05:41.772Z,984.08
2019-04-23T00:06:43.915Z,984.12
2019-04-23T00:08:42.038Z,984.24
2019-04-23T00:09:38.509Z,984.23
2019-04-23T00:10:35.181Z,984.18
2019-04-23T00:11:39.870Z,984.16
2019-04-23T00:12:43.818Z,984.11
2019-04-23T00:14:05.729Z,984.18
2019-04-23T00:14:47.567Z,984.15
2019-04-23T00:15:45.271Z,984.19
2019-04-23T00:16:42.207Z,984.29
2019-04-23T00:19:43.303Z,984.42
2019-04-23T00:20:36.156Z,984.37
2019-04-23T00:21:42.999Z,984.46
2019-04-23T00:22:36.751Z,984.37
2019-04-23T00:23:44.672Z,984.36
2019-04-23T00:25:09.745Z,984.29
2019-04-23T00:25:49.170Z,984.35
2019-04-23T00:26:36.702Z,984.25
2019-04-23T00:27:51.817Z,984.28
2019-04-23T00:29:47.936Z,984.24
2019-04-23T00:30:43.764Z,984.23
2019-04-23T00:31:36.281Z,984.21
2019-04-23T00:32:42.626Z,984.15
2019-04-23T00:33:37.248Z,984.15
2019-04-23T00:34:41.425Z,984.12
2019-04-23T00:35:38.887Z,984.18
2019-04-23T00:36:44.530Z,984.17
2019-04-23T00:37:35.599Z,984.24
2019-04-23T00:39:41.270Z,984.13
2019-04-23T00:40:40.731Z,984.09
2019-04-23T00:41:39.124Z,984.12
2019-04-23T00:43:43.299Z,984.13
2019-04-23T00:44:40.371Z,984.12
2019-04-23T00:45:41.242Z,984.08
2019-04-23T00:46:35.113Z,983.99
2019-04-23T00:47:38.519Z,983.96
2019-04-23T00:48:45.397Z,984.01
2019-04-23T00:49:40.186Z,983.87
2019-04-23T00:50:44.719Z,983.89
2019-04-23T00:51:38.237Z,983.81
2019-04-23T00:52:50.403Z,983.79
2019-04-23T00:53:32.745Z,983.66
2019-04-23T00:54:41.126Z,983.70
2019-04-23T00:56:57.034Z,983.68
2019-04-23T00:59:39.055Z,983.60
2019-04-23T01:01:45.764Z,983.66
2019-04-23T01:02:37.274Z,983.62
2019-04-23T01:03:35.063Z,983.55
2019-04-23T01:04:41.881Z,983.45
2019-04-23T01:05:37.575Z,983.43
2019-04-23T01:06:46.031Z,983.41
2019-04-23T01:07:38.607Z,983.37
2019-04-23T01:08:35.574Z,983.38
2019-04-23T01:09:38.657Z,983.39
2019-04-23T01:10:36.239Z,983.30
2019-04-23T01:11:32.066Z,983.29
2019-04-23T01:12:49.525Z,983.27
2019-04-23T01:14:34.871Z,983.18
2019-04-23T01:15:39.699Z,983.15
2019-04-23T01:16:32.856Z,983.15
2019-04-23T01:17:39.926Z,983.11
2019-04-23T01:18:46.835Z,983.17
2019-04-23T01:19:40.026Z,983.16
2019-04-23T01:20:39.050Z,983.14
2019-04-23T01:21:15.844Z,983.13
2019-04-23T01:22:14.670Z,983.15
2019-04-23T01:23:14.157Z,983.15
2019-04-23T01:24:19.263Z,983.16
2019-04-23T01:25:27.573Z,983.20
2019-04-23T01:26:34.341Z,983.17
2019-04-23T01:27:49.983Z,983.19
2019-04-23T01:28:43.579Z,983.24
2019-04-23T01:29:44.011Z,983.17
2019-04-23T01:30:45.411Z,983.25
2019-04-23T01:31:43.051Z,983.21
2019-04-23T01:32:38.057Z,983.25
2019-04-23T01:34:38.960Z,983.29
2019-04-23T01:35:41.362Z,983.36
2019-04-23T01:36:42.927Z,983.46
2019-04-23T01:37:55.780Z,983.48
2019-04-23T01:39:00.398Z,983.49
2019-04-23T01:39:39.719Z,983.50
2019-04-23T01:41:45.366Z,983.49
2019-04-23T01:42:49.344Z,983.37
2019-04-23T01:43:42.813Z,983.30
2019-04-23T01:44:46.680Z,983.27
2019-04-23T01:45:30.758Z,983.35
2019-04-23T01:46:45.868Z,983.32
2019-04-23T01:47:45.602Z,983.28
2019-04-23T01:48:40.387Z,983.36
2019-04-23T01:49:46.366Z,983.35
2019-04-23T01:50:43.475Z,983.27
2019-04-23T01:52:50.634Z,983.21
2019-04-23T01:53:38.939Z,983.13
2019-04-23T01:54:38.537Z,983.20
2019-04-23T01:55:42.142Z,983.11
2019-04-23T01:56:38.591Z,983.14
2019-04-23T01:57:47.291Z,983.16
2019-04-23T01:59:39.254Z,983.07
2019-04-23T02:00:41.290Z,983.06
2019-04-23T02:01:47.545Z,983.03
2019-04-23T02:02:43.100Z,983.03
2019-04-23T02:03:42.824Z,983.04
2019-04-23T02:04:44.541Z,983.09
2019-04-23T02:05:43.212Z,983.12
2019-04-23T02:06:38.661Z,983.10
2019-04-23T02:07:50.890Z,983.12
2019-04-23T02:08:40.195Z,983.11
2019-04-23T02:09:41.963Z,983.11
2019-04-23T02:10:49.319Z,983.07
2019-04-23T02:11:37.794Z,983.18
2019-04-23T02:12:42.066Z,983.17
2019-04-23T02:13:42.020Z,983.28
2019-04-23T02:14:43.284Z,983.30
2019-04-23T02:15:46.204Z,983.21
2019-04-23T02:17:44.307Z,983.20
2019-04-23T02:18:38.823Z,983.24
2019-04-23T02:19:46.715Z,983.30
2019-04-23T02:20:46.124Z,983.25
2019-04-23T02:21:47.743Z,983.23
2019-04-23T02:22:51.142Z,983.24
2019-04-23T02:24:45.703Z,983.19
2019-04-23T02:25:44.020Z,983.24
2019-04-23T02:26:36.843Z,983.15
2019-04-23T02:27:47.042Z,983.14
2019-04-23T02:28:49.545Z,983.11
2019-04-23T02:29:57.409Z,983.04
2019-04-23T02:31:08.118Z,983.15
2019-04-23T02:31:57.609Z,983.13
2019-04-23T02:34:57.968Z,983.09
2019-04-23T02:35:56.246Z,983.03
2019-04-23T02:37:53.795Z,983.05
2019-04-23T02:40:04.005Z,983.03
2019-04-23T02:40:58.891Z,983.01
2019-04-23T02:41:54.425Z,983.03
2019-04-23T02:43:36.112Z,982.99
2019-04-23T02:44:50.675Z,983.01
2019-04-23T02:45:56.941Z,982.99
2019-04-23T02:46:53.920Z,982.93
2019-04-23T02:47:52.643Z,982.86
2019-04-23T02:52:49.837Z,982.63
2019-04-23T02:53:53.615Z,982.61
2019-04-23T02:57:41.665Z,982.50
2019-04-23T03:01:50.701Z,982.45
2019-04-23T03:02:54.550Z,982.48
2019-04-23T03:03:49.620Z,982.40
2019-04-23T03:04:50.822Z,982.40
2019-04-23T03:05:50.648Z,982.32
2019-04-23T03:06:49.349Z,982.41
2019-04-23T03:07:47.381Z,982.43
2019-04-23T03:08:46.856Z,982.39
2019-04-23T03:09:45.554Z,982.43
2019-04-23T03:10:56.038Z,982.36
2019-04-23T03:11:52.415Z,982.41
2019-04-23T03:12:54.060Z,982.37
2019-04-23T03:14:03.648Z,982.31
2019-04-23T03:14:50.544Z,982.36
2019-04-23T03:16:12.897Z,982.31
2019-04-23T03:18:04.016Z,982.27
2019-04-23T03:18:53.768Z,982.32
2019-04-23T03:19:45.822Z,982.31
2019-04-23T03:20:59.499Z,982.29
2019-04-23T03:23:01.050Z,982.28
2019-04-23T03:24:05.311Z,982.32
2019-04-23T03:24:55.900Z,982.24
2019-04-23T03:25:44.841Z,982.23
2019-04-23T03:26:55.587Z,982.20
2019-04-23T03:27:41.622Z,982.20
2019-04-23T03:31:41.471Z,982.18
2019-04-23T03:34:06.097Z,982.22
2019-04-23T03:34:41.107Z,982.22
2019-04-23T03:37:49.344Z,982.03
2019-04-23T03:40:50.336Z,982.04
2019-04-23T03:42:00.619Z,981.98
2019-04-23T03:43:45.403Z,982.08
2019-04-23T03:45:00.637Z,982.11
2019-04-23T03:46:07.162Z,982.16
2019-04-23T03:46:46.304Z,982.24
2019-04-23T03:49:46.406Z,982.12
2019-04-23T03:50:58.699Z,982.04
2019-04-23T03:51:51.245Z,981.99
2019-04-23T03:52:51.139Z,981.97
2019-04-23T03:53:54.613Z,982.01
2019-04-23T03:54:44.567Z,981.97
2019-04-23T03:56:05.696Z,981.90
2019-04-23T03:57:38.337Z,982.09
2019-04-23T03:58:58.182Z,982.04
2019-04-23T03:59:55.236Z,982.07
2019-04-23T04:00:45.525Z,982.11
2019-04-23T04:01:48.642Z,982.09
2019-04-23T04:03:03.215Z,982.18
2019-04-23T04:04:36.596Z,982.17
2019-04-23T04:06:50.173Z,982.17
2019-04-23T04:08:11.328Z,982.15
2019-04-23T04:08:56.295Z,982.14
2019-04-23T04:10:52.365Z,982.22
2019-04-23T04:11:34.322Z,982.24
2019-04-23T04:12:39.652Z,982.13
2019-04-23T04:13:51.098Z,982.11
2019-04-23T04:17:55.516Z,981.98
2019-04-23T04:20:54.989Z,982.00
2019-04-23T04:25:01.603Z,982.05
2019-04-23T04:26:55.786Z,982.02
2019-04-23T04:27:53.929Z,982.14
2019-04-23T04:29:03.028Z,982.16
2019-04-23T04:30:01.575Z,982.17
2019-04-23T04:30:54.498Z,982.09
2019-04-23T04:31:48.197Z,982.19
2019-04-23T04:33:00.464Z,982.14
2019-04-23T04:34:00.768Z,982.10
2019-04-23T04:35:39.053Z,982.16
2019-04-23T04:36:58.736Z,982.10
2019-04-23T04:38:44.890Z,982.09
2019-04-23T04:39:57.142Z,982.12
2019-04-23T04:40:42.439Z,982.09
2019-04-23T04:41:52.476Z,982.04
2019-04-23T04:43:00.138Z,982.08
2019-04-23T04:44:02.006Z,982.06
2019-04-23T04:45:07.472Z,982.10
2019-04-23T04:46:02.870Z,982.05
2019-04-23T04:46:47.730Z,982.06
2019-04-23T04:47:45.381Z,982.04
2019-04-23T04:48:49.029Z,982.09
2019-04-23T04:49:51.063Z,982.10
2019-04-23T04:50:49.305Z,982.03
2019-04-23T04:52:14.110Z,981.97
2019-04-23T04:54:47.065Z,981.93
2019-04-23T04:55:47.726Z,982.03
2019-04-23T04:56:58.101Z,981.99
2019-04-23T04:58:46.961Z,981.81
2019-04-23T04:59:54.167Z,981.89
2019-04-23T05:01:49.022Z,981.80
2019-04-23T05:03:02.239Z,981.82
2019-04-23T05:03:36.159Z,981.82
2019-04-23T05:05:02.342Z,981.71
2019-04-23T05:06:51.297Z,981.77
2019-04-23T05:08:01.921Z,981.77
2019-04-23T05:08:47.976Z,981.77
2019-04-23T05:09:55.165Z,981.81
2019-04-23T05:13:12.076Z,981.71
2019-04-23T05:13:45.546Z,981.75
2019-04-23T05:14:52.645Z,981.73
2019-04-23T05:16:44.492Z,981.70
2019-04-23T05:17:57.241Z,981.72
2019-04-23T05:19:04.162Z,981.73
2019-04-23T05:19:45.716Z,981.80
2019-04-23T05:20:48.421Z,981.90
2019-04-23T05:21:49.618Z,981.84
2019-04-23T05:22:48.818Z,981.93
2019-04-23T05:23:50.518Z,981.91
2019-04-23T05:24:42.511Z,981.90
2019-04-23T05:25:39.588Z,981.91
2019-04-23T05:26:29.315Z,981.94
2019-04-23T05:27:47.196Z,981.84
2019-04-23T05:28:53.397Z,981.98
2019-04-23T05:29:36.323Z,981.98
2019-04-23T05:30:50.089Z,981.94
2019-04-23T05:31:33.743Z,981.97
2019-04-23T05:32:43.249Z,982.01
2019-04-23T05:33:37.129Z,982.01
2019-04-23T05:34:42.925Z,981.99
2019-04-23T05:36:04.899Z,982.02
2019-04-23T05:36:43.420Z,982.10
2019-04-23T05:37:55.708Z,982.06
2019-04-23T05:40:46.680Z,982.07
2019-04-23T05:42:42.333Z,982.05
2019-04-23T05:43:40.785Z,982.03
2019-04-23T05:46:55.785Z,982.07
2019-04-23T05:47:34.698Z,981.98
2019-04-23T05:48:37.602Z,982.00
2019-04-23T05:49:40.735Z,981.97
2019-04-23T05:51:48.633Z,981.99
2019-04-23T05:53:39.727Z,981.98
2019-04-23T05:54:44.417Z,981.98
2019-04-23T05:55:42.762Z,982.05
2019-04-23T05:56:53.455Z,982.00
2019-04-23T05:57:38.522Z,981.99
2019-04-23T05:59:37.937Z,982.08
2019-04-23T06:02:46.057Z,982.07
2019-04-23T06:03:41.950Z,982.04
2019-04-23T06:04:37.354Z,982.02
2019-04-23T06:05:41.441Z,982.02
2019-04-23T06:07:42.703Z,982.06
2019-04-23T06:08:38.588Z,982.05
2019-04-23T06:09:42.546Z,982.07
2019-04-23T06:10:39.565Z,982.09
2019-04-23T06:11:55.502Z,982.04
2019-04-23T06:12:39.627Z,982.12
2019-04-23T06:13:43.047Z,982.09
2019-04-23T06:14:40.274Z,982.08
2019-04-23T06:15:36.911Z,982.04
2019-04-23T06:16:41.869Z,982.12
2019-04-23T06:17:37.922Z,982.00
2019-04-23T06:18:44.473Z,982.04
2019-04-23T06:19:36.803Z,982.10
2019-04-23T06:20:46.938Z,982.02
2019-04-23T06:21:44.881Z,982.05
2019-04-23T06:23:46.324Z,982.01
2019-04-23T06:24:49.157Z,982.08
2019-04-23T06:25:51.062Z,982.03
2019-04-23T06:26:51.782Z,982.01
2019-04-23T06:27:37.980Z,982.03
2019-04-23T06:28:44.241Z,982.12
2019-04-23T06:30:46.814Z,982.13
2019-04-23T06:32:37.719Z,982.07
2019-04-23T06:33:40.058Z,981.95
2019-04-23T06:34:39.741Z,982.04
2019-04-23T06:35:36.279Z,982.03
2019-04-23T06:36:39.925Z,982.03
2019-04-23T06:38:13.631Z,982.11
2019-04-23T06:38:47.875Z,982.11
2019-04-23T06:40:43.550Z,982.12
2019-04-23T06:41:49.937Z,982.17
2019-04-23T06:42:34.876Z,982.16
2019-04-23T06:43:44.025Z,982.13
2019-04-23T06:44:37.867Z,982.21
2019-04-23T06:45:40.432Z,982.20
2019-04-23T06:46:46.036Z,982.19
2019-04-23T06:47:36.107Z,982.15
2019-04-23T06:49:47.284Z,982.15
2019-04-23T06:50:46.338Z,982.21
2019-04-23T06:51:43.800Z,982.18
2019-04-23T06:52:24.800Z,982.16
2019-04-23T06:53:40.360Z,982.23
2019-04-23T06:54:42.452Z,982.25
2019-04-23T06:56:43.284Z,982.15
2019-04-23T06:57:38.443Z,982.17
2019-04-23T06:58:38.556Z,982.18
2019-04-23T06:59:39.082Z,982.11
2019-04-23T07:00:41.887Z,982.23
2019-04-23T07:01:51.034Z,982.21
2019-04-23T07:02:41.602Z,982.16
2019-04-23T07:04:43.507Z,982.21
2019-04-23T07:05:39.314Z,982.13
2019-04-23T07:06:38.525Z,982.25
2019-04-23T07:08:56.286Z,982.23
2019-04-23T07:09:35.364Z,982.33
2019-04-23T07:10:42.267Z,982.34
2019-04-23T07:12:56.181Z,982.34
2019-04-23T07:13:48.748Z,982.33
2019-04-23T07:14:44.553Z,982.22
2019-04-23T07:17:35.006Z,982.30
2019-04-23T07:18:36.230Z,982.35
2019-04-23T07:19:58.413Z,982.36
2019-04-23T07:20:42.731Z,982.34
2019-04-23T07:21:35.633Z,982.26
2019-04-23T07:22:35.959Z,982.34
2019-04-23T07:23:45.633Z,982.36
2019-04-23T07:24:36.204Z,982.32
2019-04-23T07:25:40.412Z,982.30
2019-04-23T07:26:42.331Z,982.46
2019-04-23T07:27:31.744Z,982.36
2019-04-23T07:28:44.032Z,982.48
2019-04-23T07:29:45.748Z,982.47
2019-04-23T07:30:39.947Z,982.54
2019-04-23T07:31:46.066Z,982.51
2019-04-23T07:32:35.975Z,982.54
2019-04-23T07:33:44.233Z,982.48
2019-04-23T07:34:39.800Z,982.53
2019-04-23T07:35:38.303Z,982.53
2019-04-23T07:36:40.627Z,982.55
2019-04-23T07:37:43.219Z,982.57
2019-04-23T07:38:52.952Z,982.56
2019-04-23T07:40:31.210Z,982.58
2019-04-23T07:41:45.925Z,982.55
2019-04-23T07:42:42.098Z,982.57
2019-04-23T07:43:45.232Z,982.67
2019-04-23T07:44:42.645Z,982.56
2019-04-23T07:45:35.338Z,982.58
2019-04-23T07:46:40.753Z,982.59
2019-04-23T07:47:32.083Z,982.55
2019-04-23T07:48:27.648Z,982.64
2019-04-23T07:49:43.309Z,982.62
2019-04-23T07:51:44.950Z,982.62
2019-04-23T07:52:41.012Z,982.53
2019-04-23T07:53:39.972Z,982.64
2019-04-23T07:54:44.221Z,982.57
2019-04-23T07:55:56.447Z,982.65
2019-04-23T07:56:35.835Z,982.75
2019-04-23T07:57:35.042Z,982.66
2019-04-23T07:59:01.174Z,982.72
2019-04-23T07:59:47.370Z,982.66
2019-04-23T08:01:34.743Z,982.61
2019-04-23T08:02:57.896Z,982.68
2019-04-23T08:03:39.824Z,982.68
2019-04-23T08:04:49.219Z,982.62
2019-04-23T08:06:40.017Z,982.62
2019-04-23T08:07:35.820Z,982.62
2019-04-23T08:08:36.436Z,982.60
2019-04-23T08:09:43.983Z,982.63
2019-04-23T08:10:44.521Z,982.59
2019-04-23T08:12:40.332Z,982.66
2019-04-23T08:13:41.923Z,982.72
2019-04-23T08:14:40.882Z,982.62
2019-04-23T08:17:35.804Z,982.59
2019-04-23T08:18:45.111Z,982.57
2019-04-23T08:20:44.647Z,982.62
2019-04-23T08:21:31.833Z,982.69
2019-04-23T08:22:39.280Z,982.64
2019-04-23T08:23:45.771Z,982.68
2019-04-23T08:24:47.056Z,982.63
2019-04-23T08:25:47.334Z,982.65
2019-04-23T08:26:38.113Z,982.64
2019-04-23T08:27:35.236Z,982.56
2019-04-23T08:28:52.719Z,982.60
2019-04-23T08:29:44.431Z,982.64
2019-04-23T08:30:43.243Z,982.60
2019-04-23T08:32:55.448Z,982.69
2019-04-23T08:33:42.213Z,982.62
2019-04-23T08:34:44.917Z,982.63
2019-04-23T08:36:43.981Z,982.66
2019-04-23T08:38:04.498Z,982.69
2019-04-23T08:38:36.031Z,982.72
2019-04-23T08:39:39.807Z,982.75
2019-04-23T08:40:43.226Z,982.70
2019-04-23T08:41:46.242Z,982.72
2019-04-23T08:43:51.485Z,982.75
2019-04-23T08:45:32.906Z,982.68
2019-04-23T08:46:43.320Z,982.75
2019-04-23T08:47:33.106Z,982.78
2019-04-23T08:49:40.377Z,982.77
2019-04-23T08:50:40.331Z,982.77
2019-04-23T08:51:44.136Z,982.79
2019-04-23T08:52:40.111Z,982.78
2019-04-23T08:54:56.813Z,982.81
2019-04-23T08:56:41.488Z,982.83
2019-04-23T08:57:32.137Z,982.80
2019-04-23T08:58:47.424Z,982.77
2019-04-23T08:59:47.556Z,982.83
2019-04-23T09:00:37.286Z,982.83
2019-04-23T09:01:46.018Z,982.84
2019-04-23T09:03:02.413Z,982.81
2019-04-23T09:03:34.327Z,982.79
2019-04-23T09:04:45.520Z,982.79
2019-04-23T09:06:35.063Z,982.78
2019-04-23T09:07:50.456Z,982.78
2019-04-23T09:08:37.451Z,982.90
2019-04-23T09:09:45.884Z,982.86
2019-04-23T09:10:40.974Z,982.84
2019-04-23T09:11:45.835Z,982.94
2019-04-23T09:12:43.866Z,982.87
2019-04-23T09:14:38.606Z,982.91
2019-04-23T09:16:37.780Z,982.85
2019-04-23T09:17:44.412Z,982.97
2019-04-23T09:18:32.135Z,982.95
2019-04-23T09:19:42.878Z,982.88
2019-04-23T09:20:31.001Z,982.96
2019-04-23T09:21:37.395Z,982.98
2019-04-23T09:24:44.853Z,982.94
2019-04-23T09:25:43.683Z,982.96
2019-04-23T09:26:37.382Z,982.90
2019-04-23T09:27:39.988Z,982.90
2019-04-23T09:29:49.278Z,982.96
2019-04-23T09:30:37.058Z,983.03
2019-04-23T09:32:05.977Z,982.94
2019-04-23T09:32:55.599Z,982.90
2019-04-23T09:33:51.936Z,982.96
2019-04-23T09:34:48.546Z,983.00
2019-04-23T09:37:40.577Z,983.02
2019-04-23T09:38:39.010Z,983.08
2019-04-23T09:39:42.897Z,983.02
2019-04-23T09:40:49.234Z,982.95
2019-04-23T09:41:31.197Z,982.95
2019-04-23T09:42:41.361Z,983.05
2019-04-23T09:43:31.578Z,983.01
2019-04-23T09:45:46.815Z,983.01
2019-04-23T09:46:36.374Z,983.00
2019-04-23T09:48:46.537Z,983.14
2019-04-23T09:50:41.985Z,983.18
2019-04-23T09:51:38.233Z,983.23
2019-04-23T09:52:41.226Z,983.16
2019-04-23T09:53:34.237Z,983.23
2019-04-23T09:54:39.894Z,983.23
2019-04-23T09:56:42.876Z,983.19
2019-04-23T09:57:46.594Z,983.25
2019-04-23T09:58:28.724Z,983.22
2019-04-23T09:59:41.309Z,983.21
2019-04-23T10:01:29.145Z,983.28
2019-04-23T10:02:27.554Z,983.19
2019-04-23T10:03:26.847Z,983.37
2019-04-23T10:04:23.793Z,983.24
2019-04-23T10:05:22.186Z,983.29
2019-04-23T10:06:18.334Z,983.36
2019-04-23T10:07:25.077Z,983.37
2019-04-23T10:08:18.715Z,983.38
2019-04-23T10:09:10.578Z,983.35
2019-04-23T10:10:08.294Z,983.33
2019-04-23T10:11:09.455Z,983.39
2019-04-23T10:12:09.433Z,983.31
2019-04-23T10:13:08.432Z,983.39
2019-04-23T10:14:08.364Z,983.32
2019-04-23T10:15:16.411Z,983.25
2019-04-23T10:16:12.229Z,983.34
2019-04-23T10:17:10.328Z,983.33
2019-04-23T10:18:08.207Z,983.34
2019-04-23T10:19:08.214Z,983.37
2019-04-23T10:20:08.683Z,983.35
2019-04-23T10:21:08.189Z,983.40
2019-04-23T10:22:09.170Z,983.38
2019-04-23T10:23:08.450Z,983.33
2019-04-23T10:24:09.609Z,983.39
2019-04-23T10:25:08.865Z,983.37
2019-04-23T10:26:08.116Z,983.37
2019-04-23T10:27:08.433Z,983.29
2019-04-23T10:28:10.891Z,983.29
2019-04-23T10:29:09.729Z,983.33
2019-04-23T10:30:08.262Z,983.27
2019-04-23T10:31:09.051Z,983.33
2019-04-23T10:32:09.461Z,983.30
2019-04-23T10:33:09.592Z,983.34
2019-04-23T10:34:08.304Z,983.37
2019-04-23T10:35:20.526Z,983.28
2019-04-23T10:36:13.302Z,983.32
2019-04-23T10:37:09.468Z,983.35
2019-04-23T10:38:10.799Z,983.49
2019-04-23T10:39:15.600Z,983.39
2019-04-23T10:40:14.256Z,983.36
2019-04-23T10:41:09.960Z,983.42
2019-04-23T10:42:08.031Z,983.32
2019-04-23T10:43:09.229Z,983.39
2019-04-23T10:44:09.090Z,983.31
2019-04-23T10:45:19.368Z,983.38
2019-04-23T10:46:29.597Z,983.38
2019-04-23T10:47:40.335Z,983.29
2019-04-23T10:48:41.423Z,983.28
2019-04-23T10:51:43.969Z,983.37
2019-04-23T10:52:30.684Z,983.35
2019-04-23T10:53:38.243Z,983.40
2019-04-23T10:54:43.379Z,983.50
2019-04-23T10:55:42.150Z,983.46
2019-04-23T10:56:40.766Z,983.34
2019-04-23T10:57:33.015Z,983.63
2019-04-23T10:58:36.885Z,983.78
2019-04-23T11:00:37.517Z,983.66
2019-04-23T11:01:45.085Z,983.60
2019-04-23T11:02:50.543Z,983.60
2019-04-23T11:04:52.392Z,983.64
2019-04-23T11:06:43.184Z,983.65
2019-04-23T11:08:37.027Z,983.69
2019-04-23T11:10:40.399Z,983.76
2019-04-23T11:11:34.532Z,983.76
2019-04-23T11:12:44.920Z,983.65
2019-04-23T11:13:38.028Z,983.76
2019-04-23T11:14:43.196Z,983.70
2019-04-23T11:15:49.332Z,983.69
2019-04-23T11:16:49.248Z,983.69
2019-04-23T11:17:46.013Z,983.78
2019-04-23T11:18:53.869Z,983.70
2019-04-23T11:19:52.822Z,983.70
2019-04-23T11:20:45.456Z,983.80
2019-04-23T11:21:58.501Z,983.68
2019-04-23T11:23:34.536Z,983.92
2019-04-23T11:24:41.895Z,983.89
2019-04-23T11:26:42.715Z,983.83
2019-04-23T11:27:42.487Z,983.82
2019-04-23T11:31:52.347Z,983.94
2019-04-23T11:33:38.694Z,983.66
2019-04-23T11:34:56.736Z,983.87
2019-04-23T11:35:47.798Z,984.00
2019-04-23T11:38:16.067Z,984.07
2019-04-23T11:39:49.553Z,983.92
2019-04-23T11:40:33.873Z,984.02
2019-04-23T11:41:45.654Z,984.01
2019-04-23T11:43:33.048Z,984.07
2019-04-23T11:52:44.620Z,984.42
2019-04-23T11:53:42.885Z,984.16
2019-04-23T11:54:39.442Z,983.97
2019-04-23T11:55:44.689Z,984.04
2019-04-23T11:57:14.796Z,984.04
2019-04-23T11:57:48.769Z,983.99
2019-04-23T11:58:42.751Z,983.88
2019-04-23T12:00:44.935Z,983.96
2019-04-23T12:01:47.735Z,983.91
2019-04-23T12:02:44.501Z,983.89
2019-04-23T12:03:50.061Z,983.82
2019-04-23T12:06:21.126Z,983.91
2019-04-23T12:06:30.121Z,983.85
2019-04-23T12:07:34.035Z,983.87
2019-04-23T12:08:38.159Z,983.85
2019-04-23T12:09:40.150Z,983.83
2019-04-23T12:10:47.936Z,983.97
2019-04-23T12:12:33.277Z,983.89
2019-04-23T12:13:52.672Z,983.96
2019-04-23T12:16:55.268Z,983.98
2019-04-23T12:17:35.401Z,983.99
2019-04-23T12:21:45.734Z,984.12
2019-04-23T12:22:41.835Z,984.05
2019-04-23T12:25:36.585Z,984.09
2019-04-23T12:27:33.169Z,984.03
2019-04-23T12:28:40.281Z,984.08
2019-04-23T12:30:13.293Z,984.16
2019-04-23T12:30:39.620Z,984.17
2019-04-23T12:31:38.410Z,984.13
2019-04-23T12:32:52.133Z,984.18
2019-04-23T12:33:45.282Z,984.06
2019-04-23T12:34:45.411Z,984.10
2019-04-23T12:35:47.181Z,984.09
2019-04-23T12:36:43.253Z,984.09
2019-04-23T12:37:41.286Z,984.06
2019-04-23T12:38:30.193Z,984.02
2019-04-23T12:39:42.503Z,984.01
2019-04-23T12:41:37.588Z,984.06
2019-04-23T12:43:43.540Z,984.04
2019-04-23T12:44:38.597Z,984.03
2019-04-23T12:45:35.574Z,984.00
2019-04-23T12:46:38.456Z,984.04
2019-04-23T12:47:50.519Z,984.03
2019-04-23T12:49:53.401Z,984.01
2019-04-23T12:50:45.470Z,984.01
2019-04-23T12:51:41.847Z,983.99
2019-04-23T12:53:37.971Z,983.97
2019-04-23T12:54:52.163Z,984.06
2019-04-23T12:55:39.089Z,984.16
2019-04-23T12:56:48.099Z,984.07
2019-04-23T12:58:27.671Z,984.12
2019-04-23T12:59:39.661Z,984.07
2019-04-23T13:01:47.013Z,984.22
2019-04-23T13:03:35.683Z,984.07
2019-04-23T13:04:45.514Z,984.10
2019-04-23T13:05:31.781Z,984.01
2019-04-23T13:06:36.521Z,983.99
2019-04-23T13:07:38.624Z,984.07
2019-04-23T13:08:41.533Z,984.03
2019-04-23T13:09:45.733Z,983.98
2019-04-23T13:11:34.893Z,983.97
2019-04-23T13:13:37.609Z,984.02
2019-04-23T13:14:41.563Z,983.97
2019-04-23T13:15:34.733Z,983.87
2019-04-23T13:17:47.364Z,983.89
2019-04-23T13:18:41.246Z,983.80
2019-04-23T13:19:49.759Z,983.87
2019-04-23T13:20:32.245Z,983.75
2019-04-23T13:21:51.730Z,983.80
2019-04-23T13:22:42.972Z,983.85
2019-04-23T13:23:34.588Z,983.91
2019-04-23T13:24:33.074Z,983.90
2019-04-23T13:25:39.854Z,983.92
2019-04-23T13:26:30.726Z,983.78
2019-04-23T13:27:46.629Z,983.91
2019-04-23T13:28:31.976Z,983.89
2019-04-23T13:29:54.543Z,983.91
2019-04-23T13:30:37.514Z,983.82
2019-04-23T13:31:30.146Z,983.88
2019-04-23T13:32:44.565Z,983.82
2019-04-23T13:33:38.903Z,983.84
2019-04-23T13:34:42.401Z,983.88
2019-04-23T13:35:45.432Z,983.88
2019-04-23T13:36:36.139Z,983.85
2019-04-23T13:37:56.410Z,983.86
2019-04-23T13:38:38.519Z,983.88
2019-04-23T13:39:39.745Z,983.83
2019-04-23T13:41:33.482Z,983.84
2019-04-23T13:44:25.711Z,983.86
2019-04-23T13:46:35.639Z,983.86
2019-04-23T13:48:24.581Z,983.73
2019-04-23T13:49:33.138Z,983.75
2019-04-23T13:50:42.000Z,983.76
2019-04-23T13:51:32.714Z,983.72
2019-04-23T13:52:59.320Z,983.72
2019-04-23T13:53:40.791Z,983.70
2019-04-23T13:54:56.507Z,983.73
2019-04-23T13:55:39.412Z,983.73
2019-04-23T13:56:55.808Z,983.70
2019-04-23T13:57:57.402Z,983.75
2019-04-23T13:58:34.495Z,983.78
2019-04-23T13:59:48.363Z,983.82
2019-04-23T14:00:44.736Z,983.79
2019-04-23T14:01:35.895Z,983.74
2019-04-23T14:03:41.407Z,983.73
2019-04-23T14:04:48.351Z,983.76
2019-04-23T14:05:35.821Z,983.75
2019-04-23T14:06:49.394Z,983.75
2019-04-23T14:07:44.617Z,983.75
2019-04-23T14:09:54.898Z,983.81
2019-04-23T14:12:43.734Z,983.99
2019-04-23T14:13:44.116Z,984.02
2019-04-23T14:14:43.773Z,984.01
2019-04-23T14:15:49.823Z,984.02
2019-04-23T14:17:46.774Z,984.20
2019-04-23T14:19:28.331Z,984.29
2019-04-23T14:20:31.612Z,984.23
2019-04-23T14:21:34.566Z,984.28
2019-04-23T14:23:05.293Z,984.28
2019-04-23T14:24:45.127Z,984.49
2019-04-23T14:25:43.279Z,984.66
2019-04-23T14:27:44.084Z,984.62
2019-04-23T14:28:41.846Z,984.42
2019-04-23T14:29:41.483Z,984.46
2019-04-23T14:30:38.577Z,984.50
2019-04-23T14:31:44.637Z,984.54
2019-04-23T14:32:35.251Z,984.45
2019-04-23T14:34:40.830Z,984.48
2019-04-23T14:37:40.959Z,984.48
2019-04-23T14:38:40.355Z,984.43
2019-04-23T14:39:37.191Z,984.42
2019-04-23T14:42:51.489Z,984.45
2019-04-23T14:43:40.262Z,984.40
2019-04-23T14:44:31.211Z,984.44
2019-04-23T14:46:02.654Z,984.35
2019-04-23T14:46:49.843Z,984.38
2019-04-23T14:47:39.115Z,984.36
2019-04-23T14:48:38.134Z,984.36
2019-04-23T14:51:39.687Z,984.41
2019-04-23T14:52:38.643Z,984.44
2019-04-23T14:53:33.846Z,984.43
2019-04-23T14:55:03.499Z,984.49
2019-04-23T14:56:52.705Z,984.39
2019-04-23T14:57:40.280Z,984.45
2019-04-23T14:58:58.242Z,984.47
2019-04-23T14:59:33.827Z,984.44
2019-04-23T15:00:43.168Z,984.47
2019-04-23T15:01:35.124Z,984.47
2019-04-23T15:02:36.717Z,984.46
2019-04-23T15:03:42.513Z,984.40
2019-04-23T15:04:34.047Z,984.59
2019-04-23T15:05:47.764Z,984.49
2019-04-23T15:06:46.787Z,984.45
2019-04-23T15:07:37.540Z,984.50
2019-04-23T15:08:40.338Z,984.53
2019-04-23T15:09:36.155Z,984.52
2019-04-23T15:10:41.591Z,984.54
2019-04-23T15:11:35.343Z,984.57
2019-04-23T15:13:35.811Z,984.69
2019-04-23T15:14:46.482Z,984.72
2019-04-23T15:15:35.715Z,984.71
2019-04-23T15:16:39.781Z,984.76
2019-04-23T15:17:34.582Z,984.69
2019-04-23T15:18:50.629Z,984.71
2019-04-23T15:20:39.860Z,984.67
2019-04-23T15:21:47.168Z,984.65
2019-04-23T15:22:47.328Z,984.78
2019-04-23T15:24:52.397Z,984.71
2019-04-23T15:28:05.187Z,984.72
2019-04-23T15:28:10.159Z,984.67
2019-04-23T15:29:20.013Z,984.81
2019-04-23T15:30:27.647Z,984.79
2019-04-23T15:32:44.266Z,984.81
2019-04-23T15:34:32.835Z,984.83
2019-04-23T15:35:40.899Z,984.89
2019-04-23T15:36:50.510Z,984.87
2019-04-23T15:38:43.995Z,984.88
2019-04-23T15:40:34.762Z,984.82
2019-04-23T15:42:32.939Z,984.79